This is the latest recevied weather packets stored in our database for station/object KI5UTS-13. If no packets are shown the sender has not sent any weather packets the latest 10 day(s).
| Time | Temp. | Humidity | Pressure | Rain* | Wind** | Luminosity | Snow |
|---|---|---|---|---|---|---|---|
| 1788368300 | 32.78° C | 71% | 1019.4 hPa | 0 mm | - | 244 W/m² | - |
| 1788367999 | 32.78° C | 69% | 1019.2 hPa | 0 mm | - | 259 W/m² | - |
| 1788367707 | 32.22° C | 74% | 1019.5 hPa | 0 mm | - | 203 W/m² | - |
| 1788367389 | 32.78° C | 72% | 1019.3 hPa | 0 mm | - | 161 W/m² | - |
| 1788367083 | 33.89° C | 68% | 1019.3 hPa | 0 mm | - | 767 W/m² | - |
| 1788366783 | 33.89° C | 71% | 1019.5 hPa | 0 mm | - | 854 W/m² | - |
| 1788366475 | 33.33° C | 72% | 1019.5 hPa | 0 mm | - | 383 W/m² | - |
| 1788366165 | 32.22° C | 72% | 1019.6 hPa | 0 mm | - | 753 W/m² | - |
| 1788365860 | 32.78° C | 73% | 1019.7 hPa | 0 mm | - | 773 W/m² | - |
| 1788365555 | 32.78° C | 72% | 1019.6 hPa | 0 mm | - | 734 W/m² | - |
| 1788365251 | 33.33° C | 72% | 1019.7 hPa | 0 mm | - | 772 W/m² | - |
| 1788364945 | 32.22° C | 72% | 1019.7 hPa | 0 mm | - | 781 W/m² | - |
| 1788364653 | 32.22° C | 72% | 1019.6 hPa | 0 mm | - | 815 W/m² | - |
| 1788364342 | 31.67° C | 72% | 1019.8 hPa | 0 mm | - | 831 W/m² | - |
| 1788364039 | 32.22° C | 71% | 1019.7 hPa | 0 mm | - | 157 W/m² | - |
| 1788363738 | 32.22° C | 73% | 1019.6 hPa | 0 mm | - | 193 W/m² | - |
| 1788363432 | 32.22° C | 72% | 1019.9 hPa | 0 mm | - | 834 W/m² | - |
| 1788363126 | 32.22° C | 72% | 1019.8 hPa | 0 mm | - | 850 W/m² | - |
| 1788362822 | 31.67° C | 76% | 1020 hPa | 0 mm | - | 863 W/m² | - |
| 1788362518 | 32.22° C | 73% | 1020 hPa | 0 mm | - | 111 W/m² | - |
| 1788362213 | 32.22° C | 74% | 1019.8 hPa | 0 mm | - | 737 W/m² | - |
| 1788361908 | 31.67° C | 76% | 1019.8 hPa | 0 mm | - | 740 W/m² | - |
| 1788361603 | 31.67° C | 76% | 1020 hPa | 0 mm | - | 728 W/m² | - |
| 1788361299 | 31.67° C | 77% | 1019.8 hPa | 0 mm | - | 474 W/m² | - |
| 1788360998 | 31.11° C | 80% | 1019.9 hPa | 0 mm | - | 707 W/m² | - |
* Rain latest hour (hover to see other rain measurements)
** Current wind speed in m/s (hover to see current wind gust speed)